FDPP

Piggs Peak

Piggs Peak, Swaziland
METAR FDPP 161200Z AUTO 04006KT //// // ////// 25/17 Q1024
Observed Flight Rules
Dec-16 @ 12:00 UTC (46 minutes ago)
Wind
40° at 6 knots
Temperatures Readings
Current 25°C / 77°F
Dewpoint 17°C / 63°F
Humidity 61%
Altimeter 30.24" Hg
Pressure 1024 hPa
Elevation 1099
METAR FDPP 161200Z AUTO 04006KT //// // ////// 25/17 Q1024
Observed Flight Rules
Dec-16 @ 12:00 UTC
(46 minutes ago)
Wind
40° at 6 knots
Temperature Dewpoint
25°C / 77°F 17°C / 63°F
Humidity Altimeter Pressure
61% 30.24" Hg 1024 hPa